Time;durP1;ratioP1;P1;durP2;ratioP2;P2;SDS_P1;SDS_P2;PMS_P1;PMS_P2;Temp;Humidity;BMP_temperature;BMP_pressure;BME280_temperature;BME280_humidity;BME280_pressure;Samples;Min_cycle;Max_cycle;Signal;HPM_P1;HPM_P2
2021/07/26 00:01:25;;;;;;;8.52;4.10;;;18.20;99.90;;;;;;5028783;28;20091;-71
2021/07/26 00:03:53;;;;;;;6.53;4.22;;;18.20;99.90;;;;;;5063514;28;20024;-72
2021/07/26 00:06:18;;;;;;;11.13;4.10;;;18.20;99.90;;;;;;5043385;28;20075;-72
2021/07/26 00:08:44;;;;;;;7.40;4.13;;;18.20;99.90;;;;;;5046444;28;20398;-72
2021/07/26 00:11:12;;;;;;;6.53;4.20;;;18.20;99.90;;;;;;5046746;28;20758;-71
2021/07/26 00:13:41;;;;;;;7.05;4.60;;;18.10;99.90;;;;;;5049203;28;20063;-72
2021/07/26 00:16:09;;;;;;;7.50;3.97;;;18.10;99.90;;;;;;5028093;28;20040;-71
2021/07/26 00:18:37;;;;;;;7.97;4.10;;;18.00;99.90;;;;;;5046734;28;20029;-71
2021/07/26 00:21:03;;;;;;;7.97;4.20;;;18.00;99.90;;;;;;5046438;28;20028;-71
2021/07/26 00:23:31;;;;;;;6.72;3.88;;;17.90;99.90;;;;;;5062721;28;20032;-71
2021/07/26 00:25:57;;;;;;;6.55;3.67;;;17.90;99.90;;;;;;5028968;28;20033;-72
2021/07/26 00:28:25;;;;;;;5.70;3.80;;;17.80;99.90;;;;;;5062605;28;20048;-71
2021/07/26 00:30:50;;;;;;;6.80;3.80;;;17.90;99.90;;;;;;5045637;28;20036;-71
2021/07/26 00:36:28;;;;;;;8.52;3.95;;;17.90;99.90;;;;;;5047111;28;20497;-71
2021/07/26 00:38:59;;;;;;;7.78;3.97;;;17.80;99.90;;;;;;5047272;28;20028;-71
2021/07/26 00:41:24;;;;;;;6.80;3.95;;;17.80;99.90;;;;;;5045697;28;20413;-71
2021/07/26 00:43:50;;;;;;;6.63;3.83;;;17.80;99.90;;;;;;5047654;28;20128;-71
2021/07/26 00:46:18;;;;;;;7.53;4.13;;;17.80;99.90;;;;;;5046704;28;20040;-71
2021/07/26 00:48:46;;;;;;;8.48;3.97;;;17.70;99.90;;;;;;5046674;28;20037;-72
2021/07/26 00:51:12;;;;;;;5.97;3.90;;;17.70;99.90;;;;;;5062890;28;20040;-71
2021/07/26 00:53:38;;;;;;;6.47;3.72;;;17.70;99.90;;;;;;5011870;28;20062;-71
2021/07/26 00:56:04;;;;;;;5.40;3.72;;;17.70;99.90;;;;;;5031454;28;20053;-71
2021/07/26 00:58:30;;;;;;;7.32;4.00;;;17.60;99.90;;;;;;5028978;28;20064;-71
2021/07/26 01:00:58;;;;;;;5.78;3.80;;;17.60;99.90;;;;;;5045247;28;20537;-71
2021/07/26 01:03:25;;;;;;;5.85;3.80;;;17.60;99.90;;;;;;5029135;28;20052;-72
2021/07/26 01:05:51;;;;;;;6.00;3.65;;;17.60;99.90;;;;;;5060941;28;20865;-71
2021/07/26 01:08:17;;;;;;;6.28;3.85;;;17.70;99.90;;;;;;5046252;28;20032;-71
2021/07/26 01:10:45;;;;;;;6.20;3.85;;;17.70;99.90;;;;;;5028024;28;20037;-71
2021/07/26 01:13:14;;;;;;;7.35;4.50;;;17.70;99.90;;;;;;5044599;28;20527;-71
2021/07/26 01:15:40;;;;;;;7.65;3.80;;;17.70;99.90;;;;;;5043149;28;20060;-71
2021/07/26 01:18:23;;;;;;;7.45;4.15;;;17.60;99.90;;;;;;5044751;28;20105;-72
2021/07/26 01:20:58;;;;;;;7.05;3.70;;;17.60;99.90;;;;;;5045311;28;20822;-71
2021/07/26 01:23:24;;;;;;;5.75;3.75;;;17.60;99.90;;;;;;5045020;28;20538;-72
2021/07/26 01:25:53;;;;;;;6.18;3.70;;;17.60;99.90;;;;;;5047259;28;20704;-71
2021/07/26 01:28:19;;;;;;;8.52;3.67;;;17.60;99.90;;;;;;5029585;28;20037;-71
2021/07/26 01:30:48;;;;;;;5.88;3.85;;;17.70;99.90;;;;;;5049486;28;20035;-72
2021/07/26 01:33:14;;;;;;;6.15;3.90;;;17.60;99.90;;;;;;5049070;28;20155;-72
2021/07/26 01:35:40;;;;;;;7.95;3.63;;;17.60;99.90;;;;;;5064823;28;20102;-72
2021/07/26 01:38:08;;;;;;;6.75;3.58;;;17.60;99.90;;;;;;5048180;28;20042;-71
2021/07/26 01:40:36;;;;;;;7.78;3.65;;;17.60;99.90;;;;;;5032206;28;20119;-71
2021/07/26 01:43:03;;;;;;;7.30;3.70;;;17.60;99.90;;;;;;5032983;28;20120;-72
2021/07/26 01:45:34;;;;;;;6.35;3.75;;;17.50;99.90;;;;;;5049263;28;20078;-73
2021/07/26 01:48:06;;;;;;;6.68;3.72;;;17.50;99.90;;;;;;5033696;28;20340;-74
2021/07/26 01:50:35;;;;;;;;;;;17.60;99.90;;;;;;5066783;28;20036;-74
2021/07/26 01:53:03;;;;;;;6.88;3.30;;;17.50;99.90;;;;;;5065664;28;20043;-72
2021/07/26 01:55:30;;;;;;;6.55;3.63;;;17.50;99.90;;;;;;5065615;28;20172;-73
2021/07/26 01:57:58;;;;;;;5.75;3.53;;;17.50;99.90;;;;;;5016348;28;20059;-74
2021/07/26 02:00:23;;;;;;;5.65;3.67;;;17.50;99.90;;;;;;5049142;28;20055;-73
2021/07/26 02:02:54;;;;;;;5.53;3.78;;;17.40;99.90;;;;;;5048926;28;20167;-73
2021/07/26 02:05:20;;;;;;;6.63;3.72;;;17.40;99.90;;;;;;5049566;28;20746;-73
2021/07/26 02:07:48;;;;;;;6.55;3.83;;;17.40;99.90;;;;;;5050261;28;20123;-73
2021/07/26 02:10:14;;;;;;;7.25;3.88;;;17.40;99.90;;;;;;5049394;28;20029;-73
2021/07/26 02:12:39;;;;;;;5.80;3.60;;;17.40;99.90;;;;;;5048805;28;20500;-73
2021/07/26 02:15:05;;;;;;;6.03;3.83;;;17.40;99.90;;;;;;5013945;28;20033;-73
2021/07/26 02:17:31;;;;;;;6.40;3.50;;;17.40;99.90;;;;;;5031362;28;20506;-73
2021/07/26 02:19:59;;;;;;;6.88;3.72;;;17.40;99.90;;;;;;5030125;28;20025;-73
2021/07/26 02:22:24;;;;;;;6.00;3.53;;;17.40;99.90;;;;;;5048461;28;20122;-73
2021/07/26 02:24:50;;;;;;;7.20;3.67;;;17.40;99.90;;;;;;5048946;28;20112;-73
2021/07/26 02:27:16;;;;;;;5.90;3.35;;;17.40;99.90;;;;;;5048198;28;20043;-73
2021/07/26 02:29:41;;;;;;;5.65;3.40;;;17.30;99.90;;;;;;5029990;28;20025;-73
2021/07/26 02:32:09;;;;;;;6.57;3.70;;;17.30;99.90;;;;;;5048602;28;20999;-73
2021/07/26 02:34:37;;;;;;;5.10;3.45;;;17.30;99.90;;;;;;5048347;28;20362;-73
2021/07/26 02:37:03;;;;;;;5.45;3.50;;;17.30;99.90;;;;;;5015220;28;20032;-73
2021/07/26 02:39:29;;;;;;;6.75;3.63;;;17.30;99.90;;;;;;5030527;28;20351;-73
2021/07/26 02:41:54;;;;;;;6.63;3.47;;;17.30;99.90;;;;;;5048031;28;20036;-73
2021/07/26 02:44:22;;;;;;;6.35;3.55;;;17.30;99.90;;;;;;5048900;28;20029;-73
2021/07/26 02:46:48;;;;;;;7.20;3.63;;;17.20;99.90;;;;;;5031788;28;20091;-73
2021/07/26 02:49:18;;;;;;;6.93;3.47;;;17.20;99.90;;;;;;5048390;28;20028;-74
2021/07/26 02:51:48;;;;;;;6.35;3.38;;;17.20;99.90;;;;;;5030706;28;20025;-73
2021/07/26 02:54:17;;;;;;;6.97;3.72;;;17.20;99.90;;;;;;5048558;28;20116;-73
2021/07/26 02:56:45;;;;;;;5.97;3.67;;;17.20;99.90;;;;;;5048398;28;20479;-73
2021/07/26 02:59:10;;;;;;;6.55;3.47;;;17.20;99.90;;;;;;5047498;28;20048;-73
2021/07/26 03:01:37;;;;;;;6.85;4.10;;;17.20;99.90;;;;;;5047949;28;20119;-73
2021/07/26 03:04:04;;;;;;;5.95;3.70;;;17.20;99.90;;;;;;5001638;28;20536;-73
2021/07/26 03:06:30;;;;;;;6.07;3.42;;;17.20;99.90;;;;;;5047066;28;20052;-73
2021/07/26 03:09:00;;;;;;;5.57;3.80;;;17.20;99.90;;;;;;5047732;28;20033;-73
2021/07/26 03:11:28;;;;;;;6.22;3.40;;;17.20;99.90;;;;;;5048197;28;20116;-73
2021/07/26 03:13:54;;;;;;;5.55;3.30;;;17.20;99.90;;;;;;5048504;28;20075;-73
2021/07/26 03:16:20;;;;;;;5.53;3.72;;;17.20;99.90;;;;;;5047764;28;20112;-73
2021/07/26 03:18:50;;;;;;;6.03;3.67;;;17.10;99.90;;;;;;5047589;28;20060;-73
2021/07/26 03:21:16;;;;;;;7.32;3.63;;;17.10;99.90;;;;;;5047675;28;20041;-73
2021/07/26 03:23:41;;;;;;;5.82;3.85;;;17.10;99.90;;;;;;5064493;28;20024;-73
2021/07/26 03:26:07;;;;;;;6.97;4.32;;;17.10;99.90;;;;;;5015130;28;20086;-73
2021/07/26 03:28:33;;;;;;;6.00;3.70;;;17.10;99.90;;;;;;5029985;28;20029;-73
2021/07/26 03:30:59;;;;;;;6.40;3.97;;;17.10;99.90;;;;;;5047076;28;20020;-73
2021/07/26 03:33:25;;;;;;;6.53;3.58;;;17.10;99.90;;;;;;5028560;28;20031;-73
2021/07/26 03:35:51;;;;;;;5.72;3.55;;;17.10;99.90;;;;;;5047176;28;20029;-73
2021/07/26 03:38:20;;;;;;;6.65;3.80;;;17.10;99.90;;;;;;5030689;28;20161;-73
2021/07/26 03:40:46;;;;;;;5.03;3.38;;;17.10;99.90;;;;;;5047832;28;20043;-73
2021/07/26 03:43:17;;;;;;;6.75;3.60;;;17.10;99.90;;;;;;5047237;28;20033;-73
2021/07/26 03:45:43;;;;;;;5.82;3.55;;;17.00;99.90;;;;;;5045724;28;20191;-73
2021/07/26 03:48:11;;;;;;;6.15;3.47;;;17.00;99.90;;;;;;5030033;28;20454;-73
2021/07/26 03:50:39;;;;;;;6.30;3.38;;;17.00;99.90;;;;;;5028946;28;20036;-73
2021/07/26 03:53:05;;;;;;;6.85;3.83;;;17.00;99.90;;;;;;5061516;28;20131;-73
2021/07/26 03:55:34;;;;;;;5.82;3.58;;;16.90;99.90;;;;;;5034155;28;20033;-73
2021/07/26 03:58:00;;;;;;;5.18;3.30;;;16.90;99.90;;;;;;5013201;28;20041;-73
2021/07/26 04:00:29;;;;;;;6.03;3.88;;;16.90;99.90;;;;;;5046696;28;20029;-73
2021/07/26 04:05:56;;;;;;;6.35;3.67;;;16.90;99.90;;;;;;5046751;28;20033;-74
2021/07/26 04:08:28;;;;;;;6.03;3.92;;;16.80;99.90;;;;;;5046598;28;20051;-74
2021/07/26 04:11:07;;;;;;;;;;;16.80;99.90;;;;;;5046313;28;20033;-74
2021/07/26 04:13:37;;;;;;;5.80;3.63;;;16.80;99.90;;;;;;5046950;28;19926;-73
2021/07/26 04:16:03;;;;;;;7.57;4.10;;;16.80;99.90;;;;;;5046880;28;20363;-74
2021/07/26 04:18:31;;;;;;;6.25;3.95;;;16.70;99.90;;;;;;5062283;28;20613;-73
2021/07/26 04:20:56;;;;;;;5.80;4.28;;;16.80;99.90;;;;;;5047879;28;20094;-73
2021/07/26 04:23:22;;;;;;;5.80;4.25;;;16.80;99.90;;;;;;5046546;28;20478;-74
2021/07/26 04:25:48;;;;;;;7.28;4.50;;;16.80;99.90;;;;;;5061505;28;20063;-71
2021/07/26 04:28:14;;;;;;;6.55;3.97;;;16.80;99.90;;;;;;5047708;28;20017;-72
2021/07/26 04:30:45;;;;;;;5.88;3.80;;;16.80;99.90;;;;;;5027325;28;20093;-72
2021/07/26 04:33:13;;;;;;;5.82;3.92;;;16.80;99.90;;;;;;5047556;28;20024;-71
2021/07/26 04:35:38;;;;;;;6.30;3.85;;;16.90;99.90;;;;;;5046351;28;20050;-72
2021/07/26 04:38:04;;;;;;;7.53;4.03;;;16.90;99.90;;;;;;5047580;28;20077;-72
2021/07/26 04:40:30;;;;;;;6.50;4.20;;;16.80;99.90;;;;;;5046684;28;20715;-71
2021/07/26 04:43:00;;;;;;;5.65;4.07;;;16.90;99.90;;;;;;5047192;28;20029;-71
2021/07/26 04:45:26;;;;;;;8.10;4.40;;;16.90;99.90;;;;;;5045526;28;20447;-71
2021/07/26 04:47:53;;;;;;;7.07;4.47;;;16.90;99.90;;;;;;5046238;28;20090;-71
2021/07/26 04:50:21;;;;;;;7.25;4.20;;;17.00;99.90;;;;;;5061724;28;20029;-71
2021/07/26 04:52:49;;;;;;;7.28;4.22;;;17.00;99.90;;;;;;5026159;28;20032;-71
2021/07/26 04:55:15;;;;;;;7.32;4.50;;;17.00;99.90;;;;;;5046421;28;20120;-71
2021/07/26 04:57:41;;;;;;;6.35;4.50;;;17.00;99.90;;;;;;5045553;28;20352;-71
2021/07/26 05:00:09;;;;;;;6.85;4.32;;;16.90;99.90;;;;;;5062078;28;20032;-71
2021/07/26 05:02:34;;;;;;;7.30;4.60;;;17.00;99.90;;;;;;5046707;28;20086;-71
2021/07/26 05:05:05;;;;;;;7.78;4.70;;;17.00;99.90;;;;;;5046925;28;20119;-71
2021/07/26 05:07:33;;;;;;;6.87;4.30;;;17.00;99.90;;;;;;5046435;28;20095;-71
2021/07/26 05:10:02;;;;;;;6.78;4.78;;;17.10;99.90;;;;;;5046047;28;20041;-72
2021/07/26 05:12:28;;;;;;;8.55;4.60;;;17.10;99.90;;;;;;5047185;28;20035;-72
2021/07/26 05:14:58;;;;;;;6.78;4.00;;;17.10;99.90;;;;;;5061968;28;20697;-73
2021/07/26 05:17:31;;;;;;;6.57;4.00;;;17.20;99.90;;;;;;5046165;28;20085;-74
2021/07/26 05:19:59;;;;;;;7.60;4.03;;;17.20;99.90;;;;;;5046396;28;20041;-73
2021/07/26 05:22:25;;;;;;;6.10;3.83;;;17.30;99.90;;;;;;5045009;28;20095;-73
2021/07/26 05:24:50;;;;;;;8.95;5.85;;;17.40;99.90;;;;;;5030167;28;20390;-73
2021/07/26 05:27:19;;;;;;;9.80;6.78;;;17.40;99.90;;;;;;5026712;28;20032;-73
2021/07/26 05:29:47;;;;;;;9.27;6.22;;;17.40;99.90;;;;;;5064130;28;20106;-74
2021/07/26 05:32:15;;;;;;;7.45;5.10;;;17.50;99.90;;;;;;5045299;28;20033;-73
2021/07/26 05:34:42;;;;;;;8.45;6.05;;;17.50;99.90;;;;;;5045951;28;20029;-74
2021/07/26 05:37:11;;;;;;;7.50;4.97;;;17.60;99.90;;;;;;5028386;28;20029;-74
2021/07/26 05:39:41;;;;;;;7.65;5.20;;;17.60;99.90;;;;;;5032007;28;20051;-74
2021/07/26 05:42:10;;;;;;;13.07;9.43;;;17.60;99.90;;;;;;5026671;28;20086;-74
2021/07/26 05:44:40;;;;;;;13.70;9.23;;;17.60;99.90;;;;;;5012302;28;20048;-72
2021/07/26 05:47:06;;;;;;;13.75;9.30;;;17.70;99.90;;;;;;5061335;28;20770;-71
2021/07/26 05:49:32;;;;;;;12.65;7.53;;;17.70;99.90;;;;;;5044580;28;20864;-72
2021/07/26 05:51:58;;;;;;;10.93;7.03;;;17.80;99.90;;;;;;5027414;28;20029;-72
2021/07/26 05:54:23;;;;;;;10.07;6.30;;;17.80;99.90;;;;;;5011074;28;20076;-72
2021/07/26 05:56:50;;;;;;;9.57;7.00;;;17.90;99.90;;;;;;5045561;28;20025;-72
2021/07/26 05:59:21;;;;;;;14.93;10.35;;;17.90;99.90;;;;;;5045684;28;20053;-72
2021/07/26 06:01:50;;;;;;;9.85;7.15;;;18.00;99.90;;;;;;5027486;28;20035;-72
2021/07/26 06:04:21;;;;;;;9.73;7.25;;;18.00;99.90;;;;;;5045180;28;20033;-72
2021/07/26 06:06:50;;;;;;;12.52;8.82;;;18.10;99.90;;;;;;5043626;28;20044;-70
2021/07/26 06:09:22;;;;;;;15.63;11.98;;;18.10;99.90;;;;;;4995223;28;20039;-70
2021/07/26 06:11:53;;;;;;;12.95;9.27;;;18.20;99.90;;;;;;5011699;28;20025;-72
2021/07/26 06:14:20;;;;;;;11.95;7.95;;;18.20;99.90;;;;;;5058975;28;20090;-72
2021/07/26 06:16:50;;;;;;;11.30;8.63;;;18.30;99.90;;;;;;5013251;28;20090;-72
2021/07/26 06:19:16;;;;;;;12.63;9.40;;;18.40;99.90;;;;;;5052304;28;20033;-72
2021/07/26 06:21:50;;;;;;;11.82;8.57;;;18.40;99.90;;;;;;5047101;28;20025;-73
2021/07/26 06:24:16;;;;;;;19.10;12.90;;;18.50;99.90;;;;;;5011672;28;20624;-71
2021/07/26 06:26:42;;;;;;;17.13;12.77;;;18.50;99.90;;;;;;5030198;28;20029;-72
2021/07/26 06:29:10;;;;;;;18.30;12.40;;;18.50;99.90;;;;;;5047968;28;20114;-72
2021/07/26 06:31:36;;;;;;;15.80;11.05;;;18.60;99.90;;;;;;5029558;28;20554;-70
2021/07/26 06:34:05;;;;;;;19.33;12.70;;;18.70;99.90;;;;;;5049232;28;20134;-70
2021/07/26 06:36:31;;;;;;;13.23;9.27;;;18.70;99.90;;;;;;5029450;28;20098;-70
2021/07/26 06:38:59;;;;;;;10.65;8.55;;;18.80;99.90;;;;;;5062404;28;20404;-72
2021/07/26 06:41:25;;;;;;;13.40;10.20;;;18.90;99.90;;;;;;5016636;28;20090;-71
2021/07/26 06:43:51;;;;;;;11.93;8.98;;;18.90;99.90;;;;;;5030965;28;20029;-73
2021/07/26 06:46:17;;;;;;;15.23;10.50;;;19.00;99.90;;;;;;5048204;28;20035;-73
2021/07/26 06:48:42;;;;;;;12.95;8.88;;;19.00;99.90;;;;;;5046913;28;20428;-72
2021/07/26 06:51:08;;;;;;;13.20;10.45;;;19.10;99.90;;;;;;5031194;28;20041;-72
2021/07/26 06:53:35;;;;;;;12.52;9.38;;;19.00;99.90;;;;;;5046568;28;20032;-71
2021/07/26 06:56:06;;;;;;;12.13;8.80;;;19.10;99.90;;;;;;5028521;28;20044;-73
2021/07/26 06:58:34;;;;;;;11.85;8.43;;;19.20;99.90;;;;;;5047227;28;20044;-71
2021/07/26 07:01:07;;;;;;;11.55;8.10;;;19.20;99.90;;;;;;5046774;28;20025;-72
2021/07/26 07:03:32;;;;;;;11.55;8.25;;;19.30;99.90;;;;;;5046886;28;20064;-73
2021/07/26 07:06:05;;;;;;;10.90;8.15;;;19.40;99.90;;;;;;5045101;28;20111;-72
2021/07/26 07:08:33;;;;;;;11.10;7.10;;;19.40;99.90;;;;;;5027976;28;20033;-72
2021/07/26 07:11:05;;;;;;;9.40;6.00;;;19.50;99.90;;;;;;5046990;28;20120;-72
2021/07/26 07:13:32;;;;;;;10.13;6.70;;;19.60;99.90;;;;;;5046918;28;20421;-72
2021/07/26 07:15:58;;;;;;;11.15;7.38;;;19.60;99.90;;;;;;5028827;28;20033;-71
2021/07/26 07:18:26;;;;;;;11.75;7.95;;;19.70;99.90;;;;;;5045702;28;20060;-72
2021/07/26 07:20:51;;;;;;;14.38;10.40;;;19.60;99.90;;;;;;5060963;28;20084;-71
2021/07/26 07:23:19;;;;;;;12.18;8.90;;;19.60;99.90;;;;;;5061665;28;20047;-71
2021/07/26 07:25:50;;;;;;;11.18;8.68;;;19.60;99.90;;;;;;5026516;28;20024;-73
2021/07/26 07:28:15;;;;;;;12.25;9.23;;;19.70;99.90;;;;;;5011828;28;20041;-72
2021/07/26 07:30:43;;;;;;;12.65;9.18;;;19.70;99.90;;;;;;5062355;28;20070;-71
2021/07/26 07:33:11;;;;;;;12.27;8.52;;;19.70;99.90;;;;;;5046461;28;20035;-72
2021/07/26 07:35:37;;;;;;;9.77;7.53;;;19.70;99.90;;;;;;5045621;28;20159;-71
2021/07/26 07:38:03;;;;;;;14.82;12.48;;;19.80;99.90;;;;;;5026229;28;20533;-70
2021/07/26 07:40:32;;;;;;;14.00;9.15;;;19.80;99.90;;;;;;5027531;28;20053;-70
2021/07/26 07:42:58;;;;;;;12.10;8.68;;;19.90;99.90;;;;;;5043126;28;20474;-72
2021/07/26 07:45:24;;;;;;;9.27;7.07;;;20.00;99.90;;;;;;5044883;28;20032;-71
2021/07/26 07:47:52;;;;;;;10.43;7.38;;;20.00;99.90;;;;;;5045696;28;20047;-71
2021/07/26 07:50:20;;;;;;;10.88;7.97;;;20.10;99.90;;;;;;5046371;28;20029;-71
2021/07/26 07:52:45;;;;;;;10.65;7.45;;;20.20;99.90;;;;;;5045708;28;20035;-71
2021/07/26 07:55:11;;;;;;;10.90;7.93;;;20.30;99.90;;;;;;5045558;28;20362;-71
2021/07/26 07:57:37;;;;;;;10.23;7.28;;;20.40;99.90;;;;;;5046035;28;20029;-71
2021/07/26 08:00:09;;;;;;;8.10;6.05;;;20.50;99.90;;;;;;5046219;28;20377;-72
2021/07/26 08:02:37;;;;;;;10.23;6.63;;;20.70;99.90;;;;;;5045822;28;20044;-71
2021/07/26 08:05:03;;;;;;;10.65;6.70;;;20.90;99.90;;;;;;5063523;28;20040;-69
2021/07/26 08:07:31;;;;;;;10.38;6.30;;;21.10;99.90;;;;;;5027645;28;20028;-69
2021/07/26 08:09:56;;;;;;;8.70;5.70;;;21.30;99.90;;;;;;5060010;28;20033;-69
2021/07/26 08:12:22;;;;;;;8.18;5.40;;;21.50;99.90;;;;;;5027833;28;20061;-69
2021/07/26 08:14:48;;;;;;;7.30;4.97;;;21.70;99.90;;;;;;5046674;28;20616;-69
2021/07/26 08:17:13;;;;;;;8.40;5.30;;;21.90;99.90;;;;;;5061514;28;20032;-68
2021/07/26 08:19:41;;;;;;;7.68;5.60;;;21.90;99.90;;;;;;5045826;28;21812;-68
2021/07/26 08:22:07;;;;;;;9.43;5.90;;;21.90;99.90;;;;;;5045514;28;20029;-68
2021/07/26 08:24:32;;;;;;;8.00;4.97;;;21.90;99.90;;;;;;5045165;28;20031;-70
2021/07/26 08:27:00;;;;;;;7.85;5.70;;;21.90;99.90;;;;;;5045215;28;20104;-73
2021/07/26 08:29:26;;;;;;;8.38;5.13;;;21.90;99.90;;;;;;5044946;28;20032;-72
2021/07/26 08:31:52;;;;;;;8.77;5.22;;;22.10;99.90;;;;;;5046166;28;20037;-72
2021/07/26 08:34:17;;;;;;;7.07;5.03;;;22.20;99.90;;;;;;5032988;28;20089;-72
2021/07/26 08:36:43;;;;;;;7.35;5.10;;;22.30;99.90;;;;;;5044033;28;20064;-72
2021/07/26 08:39:09;;;;;;;6.70;4.82;;;22.30;99.90;;;;;;5043011;28;20025;-72
2021/07/26 08:41:35;;;;;;;7.50;4.03;;;22.40;99.90;;;;;;5045377;28;20108;-71
2021/07/26 08:44:03;;;;;;;6.25;4.20;;;22.40;99.90;;;;;;5044486;28;20039;-71
2021/07/26 08:46:30;;;;;;;6.22;4.20;;;22.50;99.90;;;;;;5044308;28;20481;-71
2021/07/26 08:48:55;;;;;;;8.07;4.90;;;22.60;99.90;;;;;;5061098;28;20041;-70
2021/07/26 08:51:21;;;;;;;7.80;4.97;;;22.70;99.90;;;;;;5028770;28;20099;-71
2021/07/26 08:53:50;;;;;;;7.10;4.60;;;22.60;99.90;;;;;;5062464;28;20526;-72
2021/07/26 08:56:18;;;;;;;8.57;4.80;;;22.60;99.90;;;;;;5045342;28;20056;-72
2021/07/26 08:58:44;;;;;;;7.43;4.80;;;22.60;99.90;;;;;;5049591;28;20559;-72
2021/07/26 09:01:14;;;;;;;6.68;4.65;;;22.80;99.90;;;;;;5043803;28;20603;-71
2021/07/26 09:03:41;;;;;;;6.88;4.20;;;22.90;99.90;;;;;;5044628;28;20029;-71
2021/07/26 09:06:07;;;;;;;5.78;3.70;;;23.00;99.90;;;;;;5028882;28;20024;-72
2021/07/26 09:08:34;;;;;;;5.53;3.75;;;23.00;99.90;;;;;;5044874;28;20048;-72
2021/07/26 09:11:03;;;;;;;5.80;4.00;;;23.10;99.90;;;;;;5044136;28;20063;-72
2021/07/26 09:13:35;;;;;;;6.28;3.53;;;23.10;99.90;;;;;;5043370;28;20021;-71
2021/07/26 09:16:17;;;;;;;6.68;3.67;;;23.30;99.90;;;;;;5061030;28;20025;-71
2021/07/26 09:18:43;;;;;;;;;;;23.30;99.90;;;;;;5045483;28;20071;-70
2021/07/26 09:21:08;;;;;;;6.05;3.63;;;23.30;99.90;;;;;;5061264;28;20000;-71
2021/07/26 09:23:38;;;;;;;5.57;3.35;;;23.30;97.80;;;;;;5044404;28;20169;-71
2021/07/26 09:26:24;;;;;;;6.05;3.33;;;23.20;93.60;;;;;;5025618;28;20033;-71
2021/07/26 09:28:53;;;;;;;5.90;3.03;;;23.30;93.70;;;;;;5002985;28;20067;-71
2021/07/26 09:31:21;;;;;;;4.82;2.92;;;23.40;99.90;;;;;;5043785;28;20642;-71
2021/07/26 09:33:46;;;;;;;5.32;3.15;;;23.40;92.10;;;;;;5045029;28;20035;-68
2021/07/26 09:36:13;;;;;;;11.52;8.93;;;23.40;92.00;;;;;;5028374;28;20663;-69
2021/07/26 09:38:52;;;;;;;5.47;3.25;;;23.50;99.00;;;;;;5043685;28;20378;-71
2021/07/26 09:41:38;;;;;;;5.47;3.00;;;23.40;88.80;;;;;;5045013;28;20039;-72
2021/07/26 09:44:05;;;;;;;5.15;2.90;;;23.30;85.20;;;;;;5044878;28;20059;-71
2021/07/26 09:46:31;;;;;;;6.57;3.38;;;23.30;85.70;;;;;;5044444;28;20045;-70
2021/07/26 09:49:12;;;;;;;5.28;2.90;;;23.50;96.70;;;;;;5041609;28;20097;-72
2021/07/26 09:51:40;;;;;;;5.97;3.10;;;23.60;88.50;;;;;;5048934;28;20041;-71
2021/07/26 09:54:06;;;;;;;5.20;2.90;;;23.70;92.10;;;;;;5047875;28;20035;-71
2021/07/26 09:56:33;;;;;;;5.18;3.03;;;23.70;89.20;;;;;;5047651;28;20037;-71
2021/07/26 09:58:58;;;;;;;4.95;2.75;;;23.70;90.50;;;;;;5047410;28;20659;-71
2021/07/26 10:01:24;;;;;;;5.18;3.35;;;23.80;86.10;;;;;;5062835;28;20029;-71
2021/07/26 10:03:53;;;;;;;5.30;3.10;;;23.70;90.50;;;;;;5030890;28;20127;-71
2021/07/26 10:06:21;;;;;;;4.70;3.03;;;23.70;92.00;;;;;;5030646;28;20489;-71
2021/07/26 10:08:47;;;;;;;5.97;3.20;;;23.80;94.50;;;;;;5047011;28;20166;-71
2021/07/26 10:11:15;;;;;;;7.32;3.20;;;23.70;86.90;;;;;;5034775;28;20167;-71
2021/07/26 10:13:44;;;;;;;4.95;2.80;;;23.70;90.20;;;;;;5048269;28;20481;-71
2021/07/26 10:16:16;;;;;;;5.05;2.85;;;23.70;87.70;;;;;;5048185;28;20124;-71
2021/07/26 10:18:45;;;;;;;5.35;3.08;;;23.70;90.50;;;;;;5048342;28;21089;-71
2021/07/26 10:21:26;;;;;;;6.80;3.20;;;23.80;90.60;;;;;;5063719;28;20037;-71
2021/07/26 10:24:12;;;;;;;6.38;3.00;;;23.90;89.50;;;;;;5027603;28;20033;-71
2021/07/26 10:26:43;;;;;;;6.43;3.22;;;24.00;93.20;;;;;;5045669;28;20041;-71
2021/07/26 10:29:13;;;;;;;5.10;3.00;;;24.00;85.90;;;;;;5044191;28;20032;-71
2021/07/26 10:31:41;;;;;;;5.25;2.90;;;23.90;85.60;;;;;;5029731;28;20037;-71
2021/07/26 10:34:13;;;;;;;6.82;3.28;;;24.10;84.10;;;;;;5061995;28;20033;-71
2021/07/26 10:36:45;;;;;;;6.03;3.20;;;23.80;83.00;;;;;;5031841;28;20044;-71
2021/07/26 10:39:17;;;;;;;5.40;3.15;;;23.80;91.00;;;;;;5048010;28;20063;-71
2021/07/26 10:41:42;;;;;;;6.82;3.30;;;23.70;87.50;;;;;;5062045;28;20148;-71
2021/07/26 10:44:17;;;;;;;7.00;3.20;;;23.60;83.50;;;;;;5047695;28;20027;-71
2021/07/26 10:47:05;;;;;;;6.07;3.45;;;23.70;92.90;;;;;;5062907;28;20025;-71
2021/07/26 10:49:43;;;;;;;5.95;3.05;;;23.70;96.80;;;;;;5046653;28;20110;-71
2021/07/26 10:52:14;;;;;;;5.70;3.25;;;23.60;91.70;;;;;;5047415;28;20093;-71
2021/07/26 10:54:40;;;;;;;5.28;2.90;;;23.50;92.40;;;;;;5028770;28;20316;-71
2021/07/26 10:57:07;;;;;;;5.80;3.50;;;23.50;90.20;;;;;;5064157;28;21833;-71
2021/07/26 11:00:08;;;;;;;5.80;3.40;;;23.50;92.70;;;;;;5031713;28;20583;-72
2021/07/26 11:02:40;;;;;;;5.47;3.20;;;23.40;92.90;;;;;;5043498;28;21730;-71
2021/07/26 11:05:28;;;;;;;6.00;3.40;;;23.40;94.60;;;;;;5030214;28;20826;-72
2021/07/26 11:08:23;;;;;;;5.43;3.25;;;23.40;94.10;;;;;;5047904;28;20123;-71
2021/07/26 11:10:57;;;;;;;5.70;3.47;;;23.40;99.90;;;;;;5045052;28;20044;-71
2021/07/26 11:13:25;;;;;;;5.28;3.13;;;23.30;92.60;;;;;;5032220;28;20053;-71
2021/07/26 11:15:52;;;;;;;5.70;3.28;;;23.40;96.40;;;;;;5047403;28;20043;-71
2021/07/26 11:18:24;;;;;;;5.90;3.90;;;23.70;96.00;;;;;;5028984;28;20033;-69
2021/07/26 11:21:02;;;;;;;;;;;23.90;90.40;;;;;;5030533;28;20021;-69
2021/07/26 11:23:39;;;;;;;6.00;4.00;;;23.90;83.40;;;;;;5063149;28;19923;-71
2021/07/26 11:26:05;;;;;;;6.30;3.40;;;23.90;84.40;;;;;;5015726;28;20468;-72
2021/07/26 11:28:38;;;;;;;5.20;3.50;;;24.00;87.80;;;;;;5012235;28;20052;-71
2021/07/26 11:31:04;;;;;;;6.18;3.38;;;24.00;90.50;;;;;;5030183;28;20044;-72
2021/07/26 11:33:31;;;;;;;5.15;3.42;;;24.00;90.70;;;;;;5046534;28;20032;-71
2021/07/26 11:35:59;;;;;;;5.28;3.35;;;24.00;93.50;;;;;;5062716;28;20033;-71
2021/07/26 11:38:25;;;;;;;5.88;3.40;;;24.00;91.10;;;;;;5029086;28;20028;-72
2021/07/26 11:40:52;;;;;;;5.40;3.47;;;24.10;90.40;;;;;;5047354;28;20043;-71
2021/07/26 11:43:34;;;;;;;6.40;3.53;;;24.10;94.00;;;;;;5013114;28;20066;-71
2021/07/26 11:46:00;;;;;;;;;;;24.00;83.30;;;;;;5029918;28;20778;-71
2021/07/26 11:48:31;;;;;;;5.72;3.55;;;24.00;84.30;;;;;;5047032;28;19962;-71
2021/07/26 11:50:56;;;;;;;5.80;3.53;;;24.10;90.70;;;;;;5046181;28;20036;-68
2021/07/26 11:53:30;;;;;;;5.80;3.92;;;24.10;90.40;;;;;;5062427;28;20047;-69
2021/07/26 11:55:58;;;;;;;7.43;4.28;;;24.20;90.70;;;;;;5029628;28;20064;-71
2021/07/26 11:58:25;;;;;;;5.32;3.20;;;24.20;84.00;;;;;;5062081;28;20049;-71
2021/07/26 12:00:50;;;;;;;5.60;3.60;;;24.20;84.20;;;;;;5027386;28;20533;-72
2021/07/26 12:03:20;;;;;;;7.03;3.30;;;24.40;85.20;;;;;;4795733;28;10000897;-71
2021/07/26 12:05:48;;;;;;;5.80;3.30;;;24.50;80.50;;;;;;4697158;28;10000365;-71
2021/07/26 12:08:20;;;;;;;5.38;3.45;;;24.80;89.30;;;;;;5060823;28;20108;-71
2021/07/26 12:10:46;;;;;;;5.55;3.60;;;24.90;83.30;;;;;;5045089;28;20029;-72
2021/07/26 12:13:19;;;;;;;4.68;3.20;;;24.90;80.60;;;;;;5059011;28;20557;-71
2021/07/26 12:15:51;;;;;;;7.00;3.40;;;25.10;89.70;;;;;;4667824;28;10000090;-72
2021/07/26 12:18:17;;;;;;;6.15;3.42;;;25.00;81.20;;;;;;5029201;28;20025;-73
2021/07/26 12:20:54;;;;;;;5.70;2.97;;;24.90;84.10;;;;;;5046338;28;20470;-72
2021/07/26 12:23:21;;;;;;;6.57;3.15;;;24.90;83.70;;;;;;5027885;28;20063;-72
2021/07/26 12:25:52;;;;;;;6.82;3.20;;;24.70;80.80;;;;;;5046290;28;20046;-72
2021/07/26 12:28:41;;;;;;;5.53;3.20;;;24.70;84.20;;;;;;5045198;28;20475;-72
2021/07/26 12:31:32;;;;;;;5.70;3.33;;;24.60;80.30;;;;;;5019649;28;20245;-72
2021/07/26 12:34:16;;;;;;;5.97;3.30;;;24.50;80.30;;;;;;5059980;28;20052;-73
2021/07/26 12:36:42;;;;;;;5.70;3.50;;;24.50;90.30;;;;;;5059065;28;20097;-71
2021/07/26 12:39:08;;;;;;;6.10;3.25;;;24.60;89.10;;;;;;5044880;28;20029;-73
2021/07/26 12:41:34;;;;;;;5.10;3.35;;;24.80;88.10;;;;;;5043814;28;20535;-73
2021/07/26 12:44:34;;;;;;;5.50;3.40;;;24.90;89.20;;;;;;5060587;28;20112;-72
2021/07/26 12:46:59;;;;;;;5.82;3.55;;;25.00;84.40;;;;;;5044019;28;20021;-72
2021/07/26 12:49:25;;;;;;;5.60;3.42;;;25.00;85.80;;;;;;5043897;28;20032;-72
2021/07/26 12:51:55;;;;;;;5.75;3.60;;;25.10;86.70;;;;;;5046145;28;20144;-72
2021/07/26 12:54:21;;;;;;;5.55;3.80;;;25.10;83.30;;;;;;5045389;28;20033;-75
2021/07/26 12:56:46;;;;;;;6.68;3.90;;;25.20;87.70;;;;;;5026263;28;20029;-72
2021/07/26 12:59:12;;;;;;;5.50;3.25;;;25.00;79.30;;;;;;5043265;28;20131;-72